Time;durP1;ratioP1;P1;durP2;ratioP2;P2;SDS_P1;SDS_P2;PMS_P1;PMS_P2;Temp;Humidity;BMP_temperature;BMP_pressure;BME280_temperature;BME280_humidity;BME280_pressure;Samples;Min_cycle;Max_cycle;Signal;HPM_P1;HPM_P2
2021/04/05 00:01:31;;;;;;;6.57;3.17;;;;;;;;;;5082878;28;20074;-67
2021/04/05 00:03:57;;;;;;;6.03;2.58;;;;;;;;;;5074590;28;20041;-67
2021/04/05 00:06:23;;;;;;;5.97;2.92;;;;;;;;;;5080808;28;20056;-67
2021/04/05 00:08:49;;;;;;;6.60;2.67;;;;;;;;;;5074951;28;20457;-67
2021/04/05 00:11:17;;;;;;;5.60;2.92;;;;;;;;;;5083812;28;20048;-67
2021/04/05 00:13:44;;;;;;;5.78;3.17;;;;;;;;;;5078756;28;20389;-67
2021/04/05 00:16:10;;;;;;;6.07;3.30;;;;;;;;;;5080916;28;20055;-67
2021/04/05 00:18:36;;;;;;;4.63;2.83;;;;;;;;;;5083532;28;20067;-67
2021/04/05 00:21:07;;;;;;;5.30;2.92;;;;;;;;;;5077856;28;20049;-67
2021/04/05 00:23:33;;;;;;;7.35;3.10;;;;;;;;;;5070799;28;20077;-67
2021/04/05 00:25:59;;;;;;;6.78;3.90;;;;;;;;;;5074243;28;20044;-67
2021/04/05 00:28:26;;;;;;;6.30;2.80;;;;;;;;;;5077688;28;20097;-67
2021/04/05 00:30:53;;;;;;;9.95;3.30;;;;;;;;;;5081482;28;20056;-67
2021/04/05 00:33:20;;;;;;;8.85;2.83;;;;;;;;;;5073785;28;20432;-67
2021/04/05 00:35:46;;;;;;;5.93;2.70;;;;;;;;;;5074408;28;20469;-67
2021/04/05 00:38:13;;;;;;;5.18;2.75;;;;;;;;;;5076202;28;20074;-67
2021/04/05 00:40:41;;;;;;;5.93;2.70;;;;;;;;;;5081293;28;20054;-67
2021/04/05 00:43:09;;;;;;;5.53;3.03;;;;;;;;;;5080506;28;20048;-67
2021/04/05 00:45:36;;;;;;;4.57;2.75;;;;;;;;;;5081077;28;20051;-67
2021/04/05 00:48:04;;;;;;;5.63;2.90;;;;;;;;;;5081586;28;20052;-67
2021/04/05 00:50:47;;;;;;;8.65;3.03;;;;;;;;;;5083597;28;20405;-67
2021/04/05 00:53:15;;;;;;;8.13;3.50;;;;;;;;;;5082625;28;20049;-67
2021/04/05 00:55:43;;;;;;;5.05;2.53;;;;;;;;;;5077137;28;20400;-67
2021/04/05 00:58:09;;;;;;;4.75;2.75;;;;;;;;;;5083655;28;20063;-67
2021/04/05 01:00:40;;;;;;;5.13;2.60;;;;;;;;;;5083484;28;20404;-66
2021/04/05 01:03:07;;;;;;;4.55;2.50;;;;;;;;;;5076389;28;20388;-66
2021/04/05 01:05:33;;;;;;;8.00;2.97;;;;;;;;;;5076018;28;20055;-66
2021/04/05 01:08:00;;;;;;;4.93;3.05;;;;;;;;;;5081528;28;20070;-66
2021/04/05 01:10:26;;;;;;;7.13;3.08;;;;;;;;;;5081701;28;20063;-66
2021/04/05 01:12:52;;;;;;;5.50;2.45;;;;;;;;;;5082929;28;20070;-66
2021/04/05 01:15:19;;;;;;;5.47;2.47;;;;;;;;;;5079758;28;20492;-66
2021/04/05 01:17:46;;;;;;;6.80;2.97;;;;;;;;;;5075411;28;20049;-66
2021/04/05 01:20:14;;;;;;;7.00;3.05;;;;;;;;;;5078797;28;20396;-66
2021/04/05 01:22:42;;;;;;;6.93;3.40;;;;;;;;;;5083999;28;20048;-66
2021/04/05 01:25:10;;;;;;;6.22;2.85;;;;;;;;;;5078452;28;20057;-66
2021/04/05 01:27:36;;;;;;;4.53;2.78;;;;;;;;;;5078120;28;20452;-66
2021/04/05 01:30:07;;;;;;;5.60;2.50;;;;;;;;;;5079027;28;20587;-66
2021/04/05 01:32:33;;;;;;;4.80;2.88;;;;;;;;;;5081020;28;20047;-66
2021/04/05 01:34:59;;;;;;;6.00;2.97;;;;;;;;;;5073698;28;20060;-66
2021/04/05 01:37:25;;;;;;;7.18;3.38;;;;;;;;;;5077781;28;20102;-66
2021/04/05 01:39:52;;;;;;;5.72;3.40;;;;;;;;;;5080466;28;20044;-66
2021/04/05 01:42:18;;;;;;;8.35;2.80;;;;;;;;;;5081625;28;20055;-66
2021/04/05 01:44:44;;;;;;;7.00;3.58;;;;;;;;;;5074926;28;20047;-66
2021/04/05 01:47:10;;;;;;;6.45;2.72;;;;;;;;;;5069677;28;20040;-66
2021/04/05 01:49:39;;;;;;;9.05;2.95;;;;;;;;;;5071323;28;20412;-66
2021/04/05 01:52:11;;;;;;;7.43;3.25;;;;;;;;;;5072800;28;20090;-66
2021/04/05 01:54:37;;;;;;;5.78;3.50;;;;;;;;;;5077796;28;20400;-66
2021/04/05 01:57:07;;;;;;;6.60;2.92;;;;;;;;;;5077579;28;20048;-66
2021/04/05 01:59:33;;;;;;;5.43;3.35;;;;;;;;;;5073671;28;20481;-66
2021/04/05 02:01:59;;;;;;;8.93;2.95;;;;;;;;;;5071565;28;20144;-66
2021/04/05 02:04:25;;;;;;;7.72;3.30;;;;;;;;;;5080140;28;20044;-66
2021/04/05 02:06:51;;;;;;;6.93;2.78;;;;;;;;;;5081562;28;20361;-66
2021/04/05 02:09:17;;;;;;;6.55;2.95;;;;;;;;;;5071444;28;20056;-66
2021/04/05 02:11:44;;;;;;;6.90;3.20;;;;;;;;;;5076984;28;20056;-66
2021/04/05 02:14:11;;;;;;;7.50;3.47;;;;;;;;;;5077043;28;20105;-66
2021/04/05 02:16:37;;;;;;;5.38;3.35;;;;;;;;;;5075533;28;20063;-66
2021/04/05 02:19:04;;;;;;;6.72;3.30;;;;;;;;;;5072484;28;20052;-66
2021/04/05 02:21:30;;;;;;;8.43;4.28;;;;;;;;;;5077323;28;20098;-66
2021/04/05 02:24:02;;;;;;;13.57;7.35;;;;;;;;;;5082982;28;20401;-66
2021/04/05 02:26:29;;;;;;;10.88;6.03;;;;;;;;;;5085431;28;20056;-66
2021/04/05 02:28:58;;;;;;;8.07;4.32;;;;;;;;;;5075253;28;20362;-66
2021/04/05 02:31:27;;;;;;;6.72;3.50;;;;;;;;;;5075323;28;20923;-66
2021/04/05 02:33:54;;;;;;;5.53;3.25;;;;;;;;;;5080888;28;20461;-66
2021/04/05 02:36:23;;;;;;;7.65;3.33;;;;;;;;;;5084359;28;20056;-66
2021/04/05 02:38:51;;;;;;;6.07;2.70;;;;;;;;;;5076911;28;20404;-66
2021/04/05 02:41:18;;;;;;;5.30;2.95;;;;;;;;;;5078303;28;20052;-66
2021/04/05 02:43:44;;;;;;;5.35;2.90;;;;;;;;;;5079951;28;20044;-66
2021/04/05 02:46:13;;;;;;;9.25;3.20;;;;;;;;;;5083712;28;20530;-66
2021/04/05 02:48:41;;;;;;;6.38;3.40;;;;;;;;;;5075091;28;20053;-66
2021/04/05 02:51:08;;;;;;;6.30;4.00;;;;;;;;;;5073998;28;20083;-66
2021/04/05 02:53:34;;;;;;;7.13;3.22;;;;;;;;;;5079587;28;20044;-66
2021/04/05 02:56:01;;;;;;;4.70;3.30;;;;;;;;;;5081578;28;20048;-66
2021/04/05 02:58:28;;;;;;;5.72;2.92;;;;;;;;;;5081347;28;20048;-66
2021/04/05 03:00:54;;;;;;;5.15;3.03;;;;;;;;;;5074739;28;20089;-66
2021/04/05 03:03:20;;;;;;;5.18;2.90;;;;;;;;;;5077521;28;20056;-66
2021/04/05 03:05:47;;;;;;;6.43;2.85;;;;;;;;;;5083969;28;20104;-66
2021/04/05 03:08:14;;;;;;;4.95;3.13;;;;;;;;;;5081027;28;20047;-66
2021/04/05 03:10:40;;;;;;;5.13;3.15;;;;;;;;;;5073856;28;20040;-66
2021/04/05 03:13:07;;;;;;;6.85;2.83;;;;;;;;;;5079265;28;20050;-66
2021/04/05 03:15:33;;;;;;;6.07;3.28;;;;;;;;;;5081447;28;20040;-66
2021/04/05 03:18:01;;;;;;;6.63;3.25;;;;;;;;;;5079578;28;20105;-66
2021/04/05 03:20:30;;;;;;;5.90;3.38;;;;;;;;;;5073679;28;20051;-66
2021/04/05 03:22:57;;;;;;;11.25;4.55;;;;;;;;;;5074172;28;20055;-66
2021/04/05 03:25:24;;;;;;;16.75;3.72;;;;;;;;;;5076199;28;20595;-66
2021/04/05 03:27:51;;;;;;;5.45;2.97;;;;;;;;;;5072869;28;20059;-66
2021/04/05 03:30:22;;;;;;;7.78;3.97;;;;;;;;;;5062698;28;20386;-66
2021/04/05 03:32:51;;;;;;;8.30;4.55;;;;;;;;;;5071597;28;20401;-66
2021/04/05 03:35:20;;;;;;;7.40;3.88;;;;;;;;;;5071001;28;20045;-66
2021/04/05 03:37:47;;;;;;;8.40;3.92;;;;;;;;;;5071797;28;20469;-66
2021/04/05 03:40:15;;;;;;;6.05;3.67;;;;;;;;;;5067707;28;20505;-66
2021/04/05 03:42:43;;;;;;;7.45;4.05;;;;;;;;;;5074806;28;20059;-66
2021/04/05 03:45:17;;;;;;;10.65;4.45;;;;;;;;;;5076572;28;20089;-66
2021/04/05 03:47:50;;;;;;;5.80;4.18;;;;;;;;;;5073386;28;20142;-66
2021/04/05 03:50:18;;;;;;;7.50;3.90;;;;;;;;;;5071153;28;20041;-66
2021/04/05 03:52:49;;;;;;;9.60;4.28;;;;;;;;;;5071601;28;20055;-66
2021/04/05 03:55:16;;;;;;;7.55;4.07;;;;;;;;;;5076164;28;20053;-66
2021/04/05 03:57:45;;;;;;;8.52;4.97;;;;;;;;;;5079932;28;20063;-66
2021/04/05 04:00:13;;;;;;;9.00;4.57;;;;;;;;;;5072126;28;20091;-66
2021/04/05 04:02:45;;;;;;;6.28;3.65;;;;;;;;;;5077675;28;20044;-66
2021/04/05 04:05:16;;;;;;;11.15;4.45;;;;;;;;;;5078951;28;20087;-66
2021/04/05 04:07:46;;;;;;;8.00;3.90;;;;;;;;;;5075889;28;20427;-66
2021/04/05 04:10:14;;;;;;;9.07;3.95;;;;;;;;;;5077277;28;20055;-66
2021/04/05 04:12:43;;;;;;;7.53;4.10;;;;;;;;;;5082685;28;20488;-66
2021/04/05 04:15:11;;;;;;;8.13;4.80;;;;;;;;;;5077680;28;20041;-66
2021/04/05 04:17:37;;;;;;;8.27;4.72;;;;;;;;;;5078722;28;20054;-66
2021/04/05 04:20:05;;;;;;;8.73;3.83;;;;;;;;;;5080883;28;20037;-66
2021/04/05 04:22:32;;;;;;;9.02;4.57;;;;;;;;;;5084104;28;20125;-66
2021/04/05 04:24:58;;;;;;;10.05;5.20;;;;;;;;;;5079966;28;20485;-66
2021/04/05 04:27:24;;;;;;;10.05;5.38;;;;;;;;;;5074153;28;20068;-66
2021/04/05 04:29:55;;;;;;;7.65;4.68;;;;;;;;;;5082179;28;20102;-66
2021/04/05 04:32:21;;;;;;;9.75;4.05;;;;;;;;;;5081308;28;20058;-66
2021/04/05 04:34:48;;;;;;;7.97;3.85;;;;;;;;;;5078554;28;20041;-66
2021/04/05 04:37:14;;;;;;;8.82;4.38;;;;;;;;;;5080329;28;20044;-66
2021/04/05 04:39:40;;;;;;;8.85;3.90;;;;;;;;;;5079492;28;20048;-66
2021/04/05 04:42:07;;;;;;;8.43;3.95;;;;;;;;;;5082895;28;20048;-66
2021/04/05 04:44:33;;;;;;;7.55;4.20;;;;;;;;;;5084015;28;20044;-66
2021/04/05 04:47:00;;;;;;;9.15;5.18;;;;;;;;;;5081023;28;20430;-66
2021/04/05 04:49:27;;;;;;;11.15;5.50;;;;;;;;;;5077408;28;20473;-66
2021/04/05 04:51:53;;;;;;;10.13;5.32;;;;;;;;;;5081585;28;20055;-66
2021/04/05 04:54:19;;;;;;;7.78;5.28;;;;;;;;;;5084516;28;20044;-66
2021/04/05 04:56:45;;;;;;;13.93;6.13;;;;;;;;;;5083102;28;20048;-66
2021/04/05 04:59:12;;;;;;;8.43;5.63;;;;;;;;;;5080515;28;20879;-66
2021/04/05 05:01:39;;;;;;;13.73;5.68;;;;;;;;;;5077148;28;20052;-66
2021/04/05 05:04:10;;;;;;;11.77;5.43;;;;;;;;;;5084676;28;20044;-66
2021/04/05 05:06:36;;;;;;;13.52;5.82;;;;;;;;;;5086138;28;20054;-66
2021/04/05 05:09:04;;;;;;;10.30;5.45;;;;;;;;;;5078513;28;20040;-66
2021/04/05 05:11:30;;;;;;;11.63;5.90;;;;;;;;;;5079926;28;20056;-66
2021/04/05 05:13:57;;;;;;;8.48;4.93;;;;;;;;;;5083982;28;20380;-66
2021/04/05 05:16:23;;;;;;;8.93;5.13;;;;;;;;;;5082466;28;20056;-66
2021/04/05 05:18:51;;;;;;;11.30;5.75;;;;;;;;;;5084301;28;20044;-66
2021/04/05 05:21:23;;;;;;;14.30;7.85;;;;;;;;;;5072458;28;20058;-66
2021/04/05 05:23:52;;;;;;;10.05;5.68;;;;;;;;;;5082133;28;20417;-66
2021/04/05 05:26:19;;;;;;;11.32;5.18;;;;;;;;;;5081763;28;20431;-66
2021/04/05 05:28:46;;;;;;;7.45;4.95;;;;;;;;;;5082061;28;20040;-66
2021/04/05 05:31:13;;;;;;;10.38;5.43;;;;;;;;;;5077378;28;20040;-66
2021/04/05 05:33:40;;;;;;;7.53;4.25;;;;;;;;;;5077695;28;20408;-66
2021/04/05 05:36:06;;;;;;;10.18;4.80;;;;;;;;;;5079834;28;20405;-66
2021/04/05 05:38:33;;;;;;;8.88;4.68;;;;;;;;;;5081714;28;20059;-66
2021/04/05 05:41:06;;;;;;;11.68;4.45;;;;;;;;;;5077223;28;20070;-66
2021/04/05 05:43:37;;;;;;;7.60;4.20;;;;;;;;;;5076695;28;20044;-66
2021/04/05 05:46:09;;;;;;;10.77;5.03;;;;;;;;;;5083331;28;20045;-66
2021/04/05 05:48:45;;;;;;;9.10;4.63;;;;;;;;;;5080293;28;20047;-66
2021/04/05 05:51:17;;;;;;;11.15;5.10;;;;;;;;;;5077412;28;20056;-66
2021/04/05 05:53:53;;;;;;;8.88;4.85;;;;;;;;;;5081366;28;20053;-66
2021/04/05 05:56:29;;;;;;;8.23;5.03;;;;;;;;;;5083027;28;20044;-66
2021/04/05 05:59:07;;;;;;;12.82;6.53;;;;;;;;;;5080779;28;20404;-66
2021/04/05 06:01:44;;;;;;;8.35;5.65;;;;;;;;;;5075728;28;20048;-66
2021/04/05 06:04:19;;;;;;;8.10;5.45;;;;;;;;;;5079474;28;20051;-66
2021/04/05 06:06:53;;;;;;;6.80;4.20;;;;;;;;;;5081135;28;20051;-65
2021/04/05 06:09:30;;;;;;;8.13;3.67;;;;;;;;;;5079278;28;20044;-66
2021/04/05 06:12:00;;;;;;;8.30;4.47;;;;;;;;;;5076686;28;20043;-66
2021/04/05 06:14:47;;;;;;;9.82;4.22;;;;;;;;;;5082501;28;20044;-66
2021/04/05 06:17:19;;;;;;;10.63;4.63;;;;;;;;;;5083830;28;20040;-66
2021/04/05 06:19:48;;;;;;;6.65;4.05;;;;;;;;;;5081442;28;20047;-66
2021/04/05 06:22:33;;;;;;;8.45;3.72;;;;;;;;;;5076804;28;20041;-66
2021/04/05 06:25:05;;;;;;;7.15;3.63;;;;;;;;;;5077564;28;20040;-66
2021/04/05 06:27:40;;;;;;;8.55;4.47;;;;;;;;;;5082040;28;20880;-66
2021/04/05 06:30:10;;;;;;;7.72;4.30;;;;;;;;;;5081304;28;20051;-66
2021/04/05 06:32:49;;;;;;;9.60;4.55;;;;;;;;;;5076934;28;20044;-66
2021/04/05 06:35:47;;;;;;;7.45;4.45;;;;;;;;;;5078200;28;20056;-66
2021/04/05 06:38:20;;;;;;;7.05;3.97;;;;;;;;;;5080070;28;20422;-66
2021/04/05 06:40:48;;;;;;;12.85;5.80;;;;;;;;;;5077713;28;20040;-66
2021/04/05 06:43:39;;;;;;;10.95;5.18;;;;;;;;;;5077599;28;20064;-66
2021/04/05 06:46:21;;;;;;;9.23;4.03;;;;;;;;;;5078363;28;20067;-66
2021/04/05 06:49:13;;;;;;;6.97;4.22;;;;;;;;;;5080661;28;20115;-66
2021/04/05 06:51:53;;;;;;;5.68;3.63;;;;;;;;;;5079800;28;20060;-66
2021/04/05 06:54:41;;;;;;;7.35;3.85;;;;;;;;;;5071790;28;20051;-66
2021/04/05 06:57:11;;;;;;;6.57;3.60;;;;;;;;;;5079190;28;20097;-66
2021/04/05 06:59:56;;;;;;;7.38;3.47;;;;;;;;;;5081487;28;20044;-66
2021/04/05 07:03:08;;;;;;;12.05;4.85;;;;;;;;;;5077982;28;20052;-66
2021/04/05 07:05:54;;;;;;;7.93;3.90;;;;;;;;;;5078598;28;20772;-66
2021/04/05 07:08:22;;;;;;;7.47;3.63;;;;;;;;;;5073429;28;20048;-66
2021/04/05 07:10:59;;;;;;;8.40;3.42;;;;;;;;;;5081101;28;20278;-69
2021/04/05 07:13:29;;;;;;;10.27;4.22;;;;;;;;;;5078086;28;20392;-66
2021/04/05 07:16:00;;;;;;;6.05;3.15;;;;;;;;;;5073194;28;20063;-66
2021/04/05 07:18:44;;;;;;;8.07;4.85;;;;;;;;;;5076714;28;20117;-66
2021/04/05 07:21:19;;;;;;;7.32;3.58;;;;;;;;;;5081952;28;20378;-66
2021/04/05 07:23:53;;;;;;;9.82;3.67;;;;;;;;;;5077142;28;20093;-66
2021/04/05 07:26:36;;;;;;;9.65;4.15;;;;;;;;;;5070847;28;20105;-66
2021/04/05 07:29:09;;;;;;;6.78;3.80;;;;;;;;;;5079207;28;20138;-66
2021/04/05 07:31:40;;;;;;;11.43;4.00;;;;;;;;;;5083104;28;20048;-66
2021/04/05 07:34:20;;;;;;;7.45;3.50;;;;;;;;;;5077638;28;20477;-66
2021/04/05 07:36:50;;;;;;;8.95;3.63;;;;;;;;;;5073311;28;20045;-66
2021/04/05 07:39:22;;;;;;;7.50;3.83;;;;;;;;;;5074741;28;20057;-66
2021/04/05 07:41:52;;;;;;;6.82;3.45;;;;;;;;;;5079254;28;20048;-66
2021/04/05 07:44:41;;;;;;;9.18;3.90;;;;;;;;;;5074614;28;20048;-66
2021/04/05 07:47:13;;;;;;;12.13;3.67;;;;;;;;;;5078120;28;20048;-66
2021/04/05 07:49:43;;;;;;;6.50;4.00;;;;;;;;;;5076459;28;20085;-66
2021/04/05 07:52:20;;;;;;;13.52;5.78;;;;;;;;;;5074553;28;20055;-65
2021/04/05 07:54:46;;;;;;;12.35;3.60;;;;;;;;;;5075972;28;20053;-66
2021/04/05 07:57:21;;;;;;;12.02;3.53;;;;;;;;;;5077179;28;20056;-65
2021/04/05 07:59:54;;;;;;;9.95;3.80;;;;;;;;;;5075337;28;20087;-65
2021/04/05 08:02:26;;;;;;;11.13;4.30;;;;;;;;;;5072945;28;20485;-65
2021/04/05 08:05:00;;;;;;;8.35;3.85;;;;;;;;;;5068852;28;20072;-66
2021/04/05 08:07:31;;;;;;;9.02;3.40;;;;;;;;;;5075861;28;20551;-66
2021/04/05 08:10:06;;;;;;;10.30;3.95;;;;;;;;;;5070096;28;20101;-66
2021/04/05 08:12:38;;;;;;;6.75;3.80;;;;;;;;;;5076900;28;20484;-65
2021/04/05 08:15:24;;;;;;;6.50;3.30;;;;;;;;;;5074041;28;20048;-65
2021/04/05 08:18:03;;;;;;;7.15;4.05;;;;;;;;;;5076780;28;20401;-65
2021/04/05 08:20:34;;;;;;;11.75;3.80;;;;;;;;;;5082082;28;20059;-65
2021/04/05 08:23:06;;;;;;;10.65;3.55;;;;;;;;;;5074889;28;20602;-65
2021/04/05 08:25:44;;;;;;;5.53;3.45;;;;;;;;;;5073883;28;20048;-65
2021/04/05 08:28:21;;;;;;;19.15;3.78;;;;;;;;;;5076827;28;20087;-65
2021/04/05 08:30:56;;;;;;;8.80;4.15;;;;;;;;;;5079061;28;20040;-65
2021/04/05 08:33:28;;;;;;;15.70;3.92;;;;;;;;;;5061435;28;20056;-65
2021/04/05 08:36:06;;;;;;;16.40;4.50;;;;;;;;;;5071033;28;20045;-65
2021/04/05 08:38:38;;;;;;;12.13;3.60;;;;;;;;;;5073063;28;20056;-65
2021/04/05 08:41:08;;;;;;;8.95;3.13;;;;;;;;;;5077397;28;20074;-65
2021/04/05 08:43:40;;;;;;;7.95;3.03;;;;;;;;;;5057098;28;20110;-65
2021/04/05 08:46:11;;;;;;;11.32;3.40;;;;;;;;;;5066513;28;20381;-65
2021/04/05 08:48:40;;;;;;;5.72;3.08;;;;;;;;;;5069864;28;20044;-65
2021/04/05 08:51:10;;;;;;;11.65;3.15;;;;;;;;;;5068856;28;20040;-66
2021/04/05 08:53:42;;;;;;;9.05;3.90;;;;;;;;;;5074317;28;20044;-65
2021/04/05 08:56:11;;;;;;;8.02;3.05;;;;;;;;;;5073835;28;20044;-66
2021/04/05 08:58:41;;;;;;;10.40;4.10;;;;;;;;;;5075560;28;20040;-65
2021/04/05 09:01:12;;;;;;;10.98;3.35;;;;;;;;;;5075330;28;20036;-65
2021/04/05 09:03:38;;;;;;;7.70;2.67;;;;;;;;;;5079472;28;20870;-65
2021/04/05 09:06:08;;;;;;;7.85;3.10;;;;;;;;;;5085092;28;20055;-65
2021/04/05 09:08:34;;;;;;;7.32;3.00;;;;;;;;;;5085587;28;20501;-65
2021/04/05 09:11:02;;;;;;;7.25;3.08;;;;;;;;;;5084859;28;20040;-64
2021/04/05 09:13:31;;;;;;;10.82;3.58;;;;;;;;;;5086663;28;20049;-63
2021/04/05 09:16:11;;;;;;;10.52;3.20;;;;;;;;;;5081163;28;20144;-64
2021/04/05 09:19:00;;;;;;;10.82;3.55;;;;;;;;;;5078836;28;20052;-64
2021/04/05 09:22:00;;;;;;;9.48;3.97;;;;;;;;;;5082598;28;20052;-65
2021/04/05 09:24:34;;;;;;;7.00;3.40;;;;;;;;;;5067275;28;20080;-64
2021/04/05 09:27:28;;;;;;;6.75;3.40;;;;;;;;;;5071910;28;20053;-64
2021/04/05 09:30:10;;;;;;;7.18;3.70;;;;;;;;;;5081974;28;20037;-65
2021/04/05 09:32:49;;;;;;;7.20;3.67;;;;;;;;;;5078934;28;20095;-64
2021/04/05 09:35:35;;;;;;;7.40;3.15;;;;;;;;;;5078950;28;20043;-65
2021/04/05 09:38:11;;;;;;;6.72;3.40;;;;;;;;;;5077667;28;20051;-65
2021/04/05 09:41:00;;;;;;;8.05;4.00;;;;;;;;;;5080698;28;20093;-64
2021/04/05 09:43:45;;;;;;;7.63;3.35;;;;;;;;;;5077825;28;20056;-64
2021/04/05 09:46:27;;;;;;;9.18;3.88;;;;;;;;;;5075399;28;20185;-64
2021/04/05 09:49:00;;;;;;;8.98;3.40;;;;;;;;;;5080349;28;20504;-64
2021/04/05 09:51:50;;;;;;;9.68;3.80;;;;;;;;;;5084802;28;20473;-64
2021/04/05 09:54:21;;;;;;;13.63;3.63;;;;;;;;;;5081251;28;20055;-64
2021/04/05 09:56:53;;;;;;;7.53;3.70;;;;;;;;;;5080044;28;20064;-64
2021/04/05 09:59:20;;;;;;;8.93;3.78;;;;;;;;;;5080394;28;20052;-66
2021/04/05 10:01:49;;;;;;;7.60;3.55;;;;;;;;;;5080820;28;20089;-64
2021/04/05 10:04:18;;;;;;;9.70;3.33;;;;;;;;;;5083876;28;20092;-63
2021/04/05 10:06:45;;;;;;;7.93;3.35;;;;;;;;;;5077557;28;20048;-64
2021/04/05 10:09:11;;;;;;;6.75;3.65;;;;;;;;;;5079676;28;20055;-64
2021/04/05 10:11:41;;;;;;;6.60;3.42;;;;;;;;;;5080745;28;20052;-63
2021/04/05 10:14:09;;;;;;;7.00;3.95;;;;;;;;;;5084073;28;20632;-64
2021/04/05 10:16:36;;;;;;;8.63;3.90;;;;;;;;;;5084637;28;20101;-64
2021/04/05 10:19:07;;;;;;;6.72;3.40;;;;;;;;;;5083667;28;20461;-64
2021/04/05 10:21:35;;;;;;;6.78;3.30;;;;;;;;;;5084884;28;20051;-63
2021/04/05 10:24:04;;;;;;;7.22;3.90;;;;;;;;;;5081206;28;20052;-64
2021/04/05 10:26:32;;;;;;;9.93;4.03;;;;;;;;;;5085016;28;20098;-64
2021/04/05 10:28:58;;;;;;;9.13;4.15;;;;;;;;;;5079771;28;20386;-64
2021/04/05 10:31:25;;;;;;;8.43;3.95;;;;;;;;;;5083803;28;20124;-64
2021/04/05 10:34:00;;;;;;;11.80;4.13;;;;;;;;;;5084622;28;20055;-64
2021/04/05 10:36:26;;;;;;;9.98;3.97;;;;;;;;;;5077980;28;20044;-64
2021/04/05 10:38:53;;;;;;;9.05;4.00;;;;;;;;;;5079841;28;20131;-64
2021/04/05 10:41:22;;;;;;;6.72;3.42;;;;;;;;;;5079231;28;20040;-64
2021/04/05 10:43:51;;;;;;;11.50;4.35;;;;;;;;;;5080703;28;20044;-64
2021/04/05 10:46:18;;;;;;;8.45;4.40;;;;;;;;;;5072115;28;20059;-64
2021/04/05 10:48:49;;;;;;;7.32;3.20;;;;;;;;;;5076897;28;20511;-64
2021/04/05 10:51:19;;;;;;;7.68;3.72;;;;;;;;;;5075892;28;20044;-65
2021/04/05 10:53:48;;;;;;;8.45;3.55;;;;;;;;;;5073323;28;20044;-64
2021/04/05 10:56:15;;;;;;;6.10;3.13;;;;;;;;;;5079541;28;20051;-65
2021/04/05 10:58:48;;;;;;;10.20;3.55;;;;;;;;;;5078304;28;20476;-64
2021/04/05 11:01:15;;;;;;;6.40;3.60;;;;;;;;;;5081617;28;20047;-66
2021/04/05 11:03:44;;;;;;;6.75;3.97;;;;;;;;;;5083473;28;20525;-64
2021/04/05 11:06:14;;;;;;;6.82;3.58;;;;;;;;;;5081964;28;20052;-65
2021/04/05 11:08:41;;;;;;;7.60;2.88;;;;;;;;;;5076858;28;20573;-66
2021/04/05 11:11:10;;;;;;;15.40;3.95;;;;;;;;;;5079005;28;20060;-64
2021/04/05 11:13:37;;;;;;;10.73;3.08;;;;;;;;;;5079801;28;20048;-65
2021/04/05 11:16:09;;;;;;;14.10;2.80;;;;;;;;;;5082701;28;20089;-64
2021/04/05 11:18:36;;;;;;;9.73;3.00;;;;;;;;;;5082316;28;20058;-65
2021/04/05 11:21:02;;;;;;;10.10;2.70;;;;;;;;;;5069649;28;20067;-64
2021/04/05 11:23:33;;;;;;;14.07;3.25;;;;;;;;;;5077717;28;20057;-65
2021/04/05 11:26:00;;;;;;;6.25;3.25;;;;;;;;;;5076835;28;20386;-65
2021/04/05 11:28:30;;;;;;;14.80;3.17;;;;;;;;;;5081966;28;20053;-64
2021/04/05 11:30:59;;;;;;;5.95;2.75;;;;;;;;;;5076647;28;20040;-65
2021/04/05 11:33:28;;;;;;;6.70;2.47;;;;;;;;;;5072846;28;20059;-66
2021/04/05 11:35:56;;;;;;;8.73;2.55;;;;;;;;;;5074721;28;20059;-65
2021/04/05 11:38:23;;;;;;;9.15;3.17;;;;;;;;;;5075692;28;20070;-64
2021/04/05 11:40:55;;;;;;;11.90;3.72;;;;;;;;;;5069126;28;20036;-64
2021/04/05 11:43:23;;;;;;;7.47;2.67;;;;;;;;;;5070227;28;20484;-64
2021/04/05 11:45:53;;;;;;;8.93;3.08;;;;;;;;;;5070852;28;20101;-65
2021/04/05 11:48:22;;;;;;;5.38;2.80;;;;;;;;;;5077399;28;20075;-64
2021/04/05 11:50:49;;;;;;;13.77;4.60;;;;;;;;;;5071102;28;20163;-64
2021/04/05 11:53:28;;;;;;;12.45;2.95;;;;;;;;;;5066089;28;20052;-64
2021/04/05 11:56:02;;;;;;;8.02;3.10;;;;;;;;;;5071209;28;20489;-65
2021/04/05 11:58:32;;;;;;;12.93;3.70;;;;;;;;;;5076674;28;20060;-64
2021/04/05 12:00:59;;;;;;;12.48;4.22;;;;;;;;;;5075051;28;20047;-65
2021/04/05 12:03:32;;;;;;;26.13;8.73;;;;;;;;;;5080008;28;20051;-64
2021/04/05 12:06:03;;;;;;;19.60;4.35;;;;;;;;;;5073145;28;20094;-64
2021/04/05 12:08:34;;;;;;;10.52;3.40;;;;;;;;;;5079064;28;20488;-65
2021/04/05 12:11:04;;;;;;;9.52;2.90;;;;;;;;;;5076075;28;20036;-65
2021/04/05 12:13:34;;;;;;;8.23;2.60;;;;;;;;;;5083115;28;20492;-65
2021/04/05 12:16:02;;;;;;;8.45;2.70;;;;;;;;;;5075554;28;20051;-65
2021/04/05 12:18:28;;;;;;;6.93;2.70;;;;;;;;;;5072335;28;20062;-65
2021/04/05 12:21:00;;;;;;;6.75;2.70;;;;;;;;;;5074540;28;20048;-65
2021/04/05 12:23:26;;;;;;;9.60;2.53;;;;;;;;;;5071363;28;20470;-65
2021/04/05 12:25:53;;;;;;;7.47;2.90;;;;;;;;;;5070527;28;20139;-63
2021/04/05 12:28:19;;;;;;;7.63;2.63;;;;;;;;;;5071152;28;20048;-63
2021/04/05 12:30:46;;;;;;;11.38;2.20;;;;;;;;;;5078033;28;20040;-65
2021/04/05 12:33:15;;;;;;;9.05;2.88;;;;;;;;;;5077251;28;20544;-64
2021/04/05 12:35:42;;;;;;;8.57;3.10;;;;;;;;;;5078614;28;20048;-64
2021/04/05 12:38:10;;;;;;;9.27;2.95;;;;;;;;;;5073282;28;20040;-64
2021/04/05 12:40:38;;;;;;;7.00;2.63;;;;;;;;;;5080146;28;20048;-64
2021/04/05 12:43:07;;;;;;;6.05;3.00;;;;;;;;;;5085659;28;20051;-64
2021/04/05 12:45:34;;;;;;;6.70;2.42;;;;;;;;;;5074301;28;20628;-64
2021/04/05 12:48:02;;;;;;;7.47;2.63;;;;;;;;;;5072995;28;20049;-64
2021/04/05 12:50:32;;;;;;;7.22;3.45;;;;;;;;;;5080470;28;20048;-64
2021/04/05 12:53:02;;;;;;;18.42;3.40;;;;;;;;;;5080186;28;20589;-64
2021/04/05 12:55:30;;;;;;;7.40;2.90;;;;;;;;;;5086734;28;20057;-65
2021/04/05 12:57:57;;;;;;;16.65;2.95;;;;;;;;;;5078962;28;20051;-65
2021/04/05 13:00:24;;;;;;;12.20;3.15;;;;;;;;;;5075397;28;20055;-64
2021/04/05 13:02:56;;;;;;;9.00;3.88;;;;;;;;;;5081888;28;20097;-63
2021/04/05 13:05:25;;;;;;;16.63;3.58;;;;;;;;;;5082920;28;20056;-63
2021/04/05 13:07:56;;;;;;;12.13;5.40;;;;;;;;;;5084098;28;20070;-63
2021/04/05 13:10:25;;;;;;;13.90;4.93;;;;;;;;;;5081406;28;20048;-62
2021/04/05 13:12:53;;;;;;;9.65;4.03;;;;;;;;;;5076899;28;20067;-61
2021/04/05 13:15:22;;;;;;;11.25;4.50;;;;;;;;;;5077416;28;20056;-62
2021/04/05 13:17:49;;;;;;;10.52;4.75;;;;;;;;;;5083201;28;20628;-62
2021/04/05 13:20:19;;;;;;;20.60;6.47;;;;;;;;;;5080151;28;20036;-61
2021/04/05 13:22:53;;;;;;;9.25;4.13;;;;;;;;;;5075610;28;20473;-62
2021/04/05 13:25:26;;;;;;;10.15;3.58;;;;;;;;;;5076872;28;20094;-61
2021/04/05 13:27:54;;;;;;;51.42;14.75;;;;;;;;;;5082908;28;20519;-63
2021/04/05 13:30:21;;;;;;;21.02;6.43;;;;;;;;;;5074435;28;20048;-62
2021/04/05 13:32:50;;;;;;;13.30;4.18;;;;;;;;;;5075849;28;20044;-62
2021/04/05 13:35:21;;;;;;;7.78;3.95;;;;;;;;;;5079417;28;20055;-62
2021/04/05 13:37:49;;;;;;;9.60;3.33;;;;;;;;;;5082590;28;20048;-63
2021/04/05 13:40:21;;;;;;;7.00;3.13;;;;;;;;;;5072656;28;20033;-62
2021/04/05 13:42:48;;;;;;;9.38;3.72;;;;;;;;;;5073439;28;20146;-62
2021/04/05 13:45:16;;;;;;;9.40;3.30;;;;;;;;;;5076208;28;20051;-62
2021/04/05 13:47:44;;;;;;;8.18;3.70;;;;;;;;;;5080042;28;20049;-63
2021/04/05 13:50:11;;;;;;;10.00;3.80;;;;;;;;;;5077203;28;20047;-63
2021/04/05 13:52:39;;;;;;;7.63;3.38;;;;;;;;;;5076210;28;20053;-62
2021/04/05 13:55:08;;;;;;;6.65;3.38;;;;;;;;;;5074802;28;20469;-62
2021/04/05 13:57:37;;;;;;;7.25;3.40;;;;;;;;;;5076267;28;20432;-62
2021/04/05 14:00:06;;;;;;;9.55;3.85;;;;;;;;;;5081888;28;20053;-62
2021/04/05 14:02:34;;;;;;;8.95;3.25;;;;;;;;;;5080741;28;20110;-63
2021/04/05 14:05:02;;;;;;;10.70;3.05;;;;;;;;;;5076889;28;20107;-62
2021/04/05 14:07:34;;;;;;;8.40;3.40;;;;;;;;;;5076871;28;20075;-62
2021/04/05 14:10:02;;;;;;;8.90;3.17;;;;;;;;;;5077877;28;20052;-62
2021/04/05 14:12:30;;;;;;;7.18;2.88;;;;;;;;;;5078577;28;20113;-62
2021/04/05 14:14:56;;;;;;;5.00;3.08;;;;;;;;;;5074325;28;20485;-61
2021/04/05 14:17:29;;;;;;;12.38;2.97;;;;;;;;;;5077412;28;20049;-62
2021/04/05 14:20:00;;;;;;;5.70;2.80;;;;;;;;;;5079595;28;20044;-63
2021/04/05 14:22:30;;;;;;;11.13;2.88;;;;;;;;;;5077371;28;20052;-62
2021/04/05 14:25:00;;;;;;;6.88;2.78;;;;;;;;;;5066479;28;20092;-63
2021/04/05 14:27:29;;;;;;;8.55;3.05;;;;;;;;;;5077110;28;20048;-63
2021/04/05 14:29:56;;;;;;;5.82;2.38;;;;;;;;;;5075472;28;20045;-63
2021/04/05 14:32:26;;;;;;;8.30;2.40;;;;;;;;;;5072538;28;20062;-64
2021/04/05 14:34:53;;;;;;;9.27;2.40;;;;;;;;;;5078806;28;21171;-63
2021/04/05 14:37:30;;;;;;;7.82;2.50;;;;;;;;;;5078901;28;20503;-62
2021/04/05 14:40:00;;;;;;;10.10;3.30;;;;;;;;;;5083504;28;20467;-63
2021/04/05 14:42:29;;;;;;;6.55;2.80;;;;;;;;;;5082558;28;20047;-63
2021/04/05 14:44:57;;;;;;;7.20;3.30;;;;;;;;;;5079200;28;20585;-62
2021/04/05 14:47:23;;;;;;;11.25;3.17;;;;;;;;;;5083276;28;20558;-63
2021/04/05 14:49:51;;;;;;;7.43;3.20;;;;;;;;;;5083330;28;20040;-63
2021/04/05 14:52:24;;;;;;;7.15;2.85;;;;;;;;;;5078422;28;20058;-63
2021/04/05 14:54:51;;;;;;;10.60;3.35;;;;;;;;;;5082622;28;20044;-62
2021/04/05 14:57:18;;;;;;;6.85;3.47;;;;;;;;;;5071922;28;20044;-62
2021/04/05 14:59:45;;;;;;;9.35;3.13;;;;;;;;;;5077931;28;20465;-62